Time;durP1;ratioP1;P1;durP2;ratioP2;P2;SDS_P1;SDS_P2;PMS_P1;PMS_P2;Temp;Humidity;BMP_temperature;BMP_pressure;BME280_temperature;BME280_humidity;BME280_pressure;Samples;Min_cycle;Max_cycle;Signal;HPM_P1;HPM_P2
2024/03/07 00:02:17;;;;;;;52.85;31.60;;;6.70;99.90;;;;;;5031087;28;20696;-74
2024/03/07 00:05:03;;;;;;;47.40;33.93;;;6.60;99.90;;;;;;5034078;28;20258;-73
2024/03/07 00:07:49;;;;;;;47.20;31.37;;;6.60;99.90;;;;;;5031303;28;20474;-75
2024/03/07 00:10:36;;;;;;;50.63;33.40;;;6.50;99.90;;;;;;5027648;28;20663;-74
2024/03/07 00:13:21;;;;;;;47.10;31.00;;;6.40;99.90;;;;;;5030821;28;20456;-75
2024/03/07 00:16:08;;;;;;;49.67;31.90;;;6.40;99.90;;;;;;5027527;28;20213;-72
2024/03/07 00:18:55;;;;;;;51.87;33.30;;;6.40;99.90;;;;;;5026944;28;20477;-72
2024/03/07 00:21:41;;;;;;;45.83;30.70;;;6.30;99.90;;;;;;5030135;28;20821;-76
2024/03/07 00:24:27;;;;;;;54.67;33.97;;;6.10;99.90;;;;;;5032198;28;20474;-75
2024/03/07 00:27:14;;;;;;;47.15;31.73;;;6.00;99.90;;;;;;5029376;28;21070;-75
2024/03/07 00:30:00;;;;;;;53.50;31.98;;;5.90;99.90;;;;;;5031204;28;20249;-73
2024/03/07 00:32:45;;;;;;;45.33;31.90;;;5.90;99.90;;;;;;5033474;28;20218;-75
2024/03/07 00:35:32;;;;;;;45.78;30.95;;;5.90;99.90;;;;;;5025024;28;20500;-75
2024/03/07 00:38:18;;;;;;;50.75;32.58;;;5.90;99.90;;;;;;5028851;28;20237;-74
2024/03/07 00:41:04;;;;;;;47.28;32.30;;;5.80;99.90;;;;;;5029240;28;20213;-74
2024/03/07 00:43:50;;;;;;;49.50;30.88;;;5.80;99.90;;;;;;5029936;28;20214;-73
2024/03/07 00:46:36;;;;;;;45.22;30.27;;;5.80;99.90;;;;;;5027241;28;20358;-75
2024/03/07 00:49:21;;;;;;;43.80;29.00;;;5.80;99.90;;;;;;5032006;28;20230;-75
2024/03/07 00:52:10;;;;;;;49.63;28.38;;;5.80;99.90;;;;;;5031681;28;20445;-74
2024/03/07 00:54:55;;;;;;;42.60;29.33;;;5.70;99.90;;;;;;5035700;28;20503;-74
2024/03/07 00:57:41;;;;;;;51.50;29.42;;;5.70;99.90;;;;;;5029069;28;20218;-74
2024/03/07 01:00:28;;;;;;;46.22;26.92;;;5.70;99.90;;;;;;5032479;28;21254;-74
2024/03/07 01:03:14;;;;;;;43.58;27.33;;;5.70;99.90;;;;;;5031384;28;20215;-75
2024/03/07 01:06:00;;;;;;;45.90;29.02;;;5.60;99.90;;;;;;5031757;28;20230;-73
2024/03/07 01:08:47;;;;;;;44.92;27.55;;;5.60;99.90;;;;;;5031952;28;20365;-72
2024/03/07 01:11:32;;;;;;;46.80;26.98;;;5.50;99.90;;;;;;5029395;28;20205;-74
2024/03/07 01:14:18;;;;;;;43.55;28.80;;;5.40;99.90;;;;;;5029414;28;20254;-75
2024/03/07 01:17:06;;;;;;;40.75;26.77;;;5.40;99.90;;;;;;5028710;28;20270;-73
2024/03/07 01:19:52;;;;;;;46.63;28.27;;;5.30;99.90;;;;;;5026691;28;20210;-75
2024/03/07 01:22:38;;;;;;;44.80;28.13;;;5.30;99.90;;;;;;5028872;28;20257;-74
2024/03/07 01:25:25;;;;;;;51.37;29.87;;;5.20;99.90;;;;;;5023796;28;20207;-74
2024/03/07 01:28:12;;;;;;;46.10;28.63;;;5.20;99.90;;;;;;5036418;28;20588;-75
2024/03/07 01:30:59;;;;;;;46.70;29.48;;;5.10;99.90;;;;;;5029102;28;20784;-74
2024/03/07 01:33:44;;;;;;;45.50;29.90;;;5.10;99.90;;;;;;5029129;28;20201;-74
2024/03/07 01:36:30;;;;;;;44.28;28.33;;;5.10;99.90;;;;;;5028465;28;20570;-74
2024/03/07 01:39:16;;;;;;;45.95;30.20;;;5.10;99.90;;;;;;5037345;28;20229;-75
2024/03/07 01:42:04;;;;;;;46.50;28.98;;;4.90;99.90;;;;;;5032684;28;20221;-75
2024/03/07 01:44:50;;;;;;;43.70;28.33;;;4.90;99.90;;;;;;5034266;28;20574;-74
2024/03/07 01:47:36;;;;;;;46.15;30.45;;;5.00;99.90;;;;;;5026927;28;20704;-73
2024/03/07 01:50:21;;;;;;;41.53;28.45;;;5.00;99.90;;;;;;5028078;28;20202;-75
2024/03/07 01:53:11;;;;;;;42.77;27.63;;;5.10;99.90;;;;;;5027605;28;20236;-74
2024/03/07 01:55:58;;;;;;;46.15;28.35;;;5.00;99.90;;;;;;5031225;28;20511;-74
2024/03/07 01:58:47;;;;;;;39.53;26.17;;;5.00;99.90;;;;;;5025344;28;20238;-75
2024/03/07 02:01:35;;;;;;;38.10;25.80;;;4.90;99.90;;;;;;5026704;28;20577;-75
2024/03/07 02:04:21;;;;;;;42.22;27.48;;;4.90;99.90;;;;;;5031075;28;20636;-74
2024/03/07 02:07:11;;;;;;;44.53;29.00;;;4.80;99.90;;;;;;5033838;28;20233;-74
2024/03/07 02:10:04;;;;;;;41.05;27.63;;;4.80;99.90;;;;;;5030460;28;20210;-73
2024/03/07 02:12:49;;;;;;;40.35;26.60;;;4.70;99.90;;;;;;5030636;28;20222;-75
2024/03/07 02:15:37;;;;;;;40.30;27.60;;;4.80;99.90;;;;;;5031029;28;20199;-74
2024/03/07 02:18:23;;;;;;;39.90;27.08;;;4.70;99.90;;;;;;5030132;28;20266;-74
2024/03/07 02:21:11;;;;;;;43.85;29.05;;;4.70;99.90;;;;;;5029455;28;20682;-73
2024/03/07 02:23:57;;;;;;;42.65;27.08;;;4.60;99.90;;;;;;5031611;28;20293;-74
2024/03/07 02:26:43;;;;;;;41.13;27.10;;;4.60;99.90;;;;;;5025704;28;20226;-74
2024/03/07 02:29:30;;;;;;;40.92;26.98;;;4.60;99.90;;;;;;5031279;28;20230;-75
2024/03/07 02:32:16;;;;;;;42.40;27.23;;;4.60;99.90;;;;;;5029266;28;20296;-74
2024/03/07 02:35:03;;;;;;;45.35;25.00;;;4.40;99.90;;;;;;5026960;28;20217;-75
2024/03/07 02:37:50;;;;;;;41.88;25.48;;;4.40;99.90;;;;;;5026735;28;20230;-72
2024/03/07 02:40:36;;;;;;;40.88;28.33;;;4.40;99.90;;;;;;5019746;28;20710;-73
2024/03/07 02:43:22;;;;;;;41.67;27.45;;;4.40;99.90;;;;;;5028965;28;20324;-74
2024/03/07 02:46:07;;;;;;;36.53;26.30;;;4.40;99.90;;;;;;5020573;28;20217;-74
2024/03/07 02:48:53;;;;;;;38.20;25.15;;;4.40;99.90;;;;;;5015155;28;20658;-75
2024/03/07 02:51:39;;;;;;;42.08;25.60;;;4.30;99.90;;;;;;5028349;28;20329;-75
2024/03/07 02:54:26;;;;;;;38.70;25.27;;;4.30;99.90;;;;;;5019248;28;21308;-74
2024/03/07 02:57:12;;;;;;;40.45;27.67;;;4.20;99.90;;;;;;5006340;28;20323;-75
2024/03/07 02:59:57;;;;;;;41.08;25.65;;;4.30;99.90;;;;;;5017162;28;20682;-73
2024/03/07 03:02:43;;;;;;;38.33;25.33;;;4.30;99.90;;;;;;5029961;28;20211;-72
2024/03/07 03:05:29;;;;;;;37.65;24.95;;;4.20;99.90;;;;;;5028778;28;20207;-73
2024/03/07 03:08:15;;;;;;;34.75;25.63;;;4.20;99.90;;;;;;5030175;28;20241;-73
2024/03/07 03:11:03;;;;;;;46.30;28.25;;;4.30;99.90;;;;;;5027674;28;20329;-75
2024/03/07 03:13:49;;;;;;;40.30;26.10;;;4.10;99.90;;;;;;5030228;28;20633;-75
2024/03/07 03:16:34;;;;;;;40.38;25.98;;;4.10;99.90;;;;;;5026407;28;20685;-74
2024/03/07 03:19:22;;;;;;;40.53;27.05;;;4.10;99.90;;;;;;5029251;28;20658;-72
2024/03/07 03:22:08;;;;;;;42.78;28.48;;;4.00;99.90;;;;;;5033663;28;20202;-75
2024/03/07 03:24:55;;;;;;;42.50;27.98;;;3.90;99.90;;;;;;5028452;28;20625;-75
2024/03/07 03:27:42;;;;;;;38.90;26.77;;;3.90;99.90;;;;;;5026805;28;20377;-75
2024/03/07 03:30:28;;;;;;;40.35;27.05;;;3.90;99.90;;;;;;5030714;28;20362;-75
2024/03/07 03:33:14;;;;;;;38.60;25.90;;;3.90;99.90;;;;;;5037760;28;20201;-72
2024/03/07 03:35:59;;;;;;;37.35;25.92;;;3.80;99.90;;;;;;5028312;28;20205;-73
2024/03/07 03:38:45;;;;;;;41.08;26.27;;;3.70;99.90;;;;;;5042441;28;20216;-73
2024/03/07 03:41:31;;;;;;;46.83;28.40;;;3.70;99.90;;;;;;5044269;28;20213;-73
2024/03/07 03:44:18;;;;;;;35.10;23.88;;;3.70;99.90;;;;;;5045357;28;20661;-72
2024/03/07 03:47:03;;;;;;;44.80;28.38;;;3.70;99.90;;;;;;5040767;28;20226;-73
2024/03/07 03:49:49;;;;;;;41.13;27.50;;;3.60;99.90;;;;;;5043323;28;20208;-72
2024/03/07 03:52:36;;;;;;;38.10;26.05;;;3.70;99.90;;;;;;5046816;28;20683;-73
2024/03/07 03:55:21;;;;;;;42.67;27.15;;;3.70;99.90;;;;;;5044817;28;20205;-72
2024/03/07 03:58:06;;;;;;;43.25;27.63;;;3.60;99.90;;;;;;5044371;28;20347;-73
2024/03/07 04:00:54;;;;;;;42.08;27.35;;;3.60;99.90;;;;;;5038659;28;20224;-73
2024/03/07 04:03:39;;;;;;;41.95;26.25;;;3.60;99.90;;;;;;5044661;28;20209;-74
2024/03/07 04:06:26;;;;;;;45.28;27.50;;;3.50;99.90;;;;;;5043847;28;20232;-72
2024/03/07 04:09:11;;;;;;;37.28;25.65;;;3.50;99.90;;;;;;5046364;28;20555;-72
2024/03/07 04:11:57;;;;;;;40.00;28.25;;;3.40;99.90;;;;;;5042100;28;20216;-72
2024/03/07 04:14:43;;;;;;;42.50;28.75;;;3.40;99.90;;;;;;5041339;28;20682;-73
2024/03/07 04:17:30;;;;;;;41.35;27.35;;;3.40;99.90;;;;;;5043452;28;20699;-73
2024/03/07 04:20:17;;;;;;;43.00;29.52;;;3.30;99.90;;;;;;5045511;28;20212;-73
2024/03/07 04:23:03;;;;;;;42.80;29.83;;;3.20;99.90;;;;;;5047045;28;20252;-73
2024/03/07 04:25:49;;;;;;;41.05;27.00;;;3.30;99.90;;;;;;5045727;28;20210;-72
2024/03/07 04:28:35;;;;;;;43.10;27.48;;;3.30;99.90;;;;;;5046730;28;20233;-72
2024/03/07 04:31:21;;;;;;;40.05;26.23;;;3.20;99.90;;;;;;5046131;28;20251;-72
2024/03/07 04:34:09;;;;;;;39.33;26.83;;;3.30;99.90;;;;;;5047922;28;20303;-72
2024/03/07 04:36:55;;;;;;;40.42;26.38;;;3.20;99.90;;;;;;5045107;28;20213;-72
2024/03/07 04:39:40;;;;;;;40.33;27.10;;;3.20;99.90;;;;;;5048621;28;20205;-72
2024/03/07 04:42:26;;;;;;;38.83;26.73;;;3.20;99.90;;;;;;5048045;28;20212;-72
2024/03/07 04:45:13;;;;;;;37.75;25.50;;;3.20;99.90;;;;;;5047108;28;20209;-72
2024/03/07 04:47:58;;;;;;;38.17;26.33;;;3.20;99.90;;;;;;5047282;28;21425;-74
2024/03/07 04:50:46;;;;;;;42.25;27.85;;;3.20;99.90;;;;;;5046209;28;20217;-73
2024/03/07 04:53:31;;;;;;;40.22;27.92;;;3.30;99.90;;;;;;5049437;28;20395;-73
2024/03/07 04:56:17;;;;;;;39.95;27.23;;;3.10;99.90;;;;;;5048158;28;20204;-73
2024/03/07 04:59:03;;;;;;;42.55;27.90;;;3.00;99.90;;;;;;5047102;28;20232;-73
2024/03/07 05:01:50;;;;;;;46.25;28.70;;;3.00;99.90;;;;;;5048056;28;20324;-74
2024/03/07 05:04:35;;;;;;;37.03;25.63;;;3.10;99.90;;;;;;5047778;28;20692;-73
2024/03/07 05:07:22;;;;;;;43.03;25.63;;;3.10;99.90;;;;;;5049139;28;20271;-73
2024/03/07 05:10:09;;;;;;;40.33;26.15;;;3.20;99.90;;;;;;5050808;28;20204;-73
2024/03/07 05:12:54;;;;;;;40.90;25.88;;;3.10;99.90;;;;;;5047100;28;20209;-72
2024/03/07 05:15:40;;;;;;;46.42;27.25;;;3.00;99.90;;;;;;5048733;28;20213;-73
2024/03/07 05:18:26;;;;;;;46.55;28.80;;;3.00;99.90;;;;;;5048310;28;20727;-73
2024/03/07 05:24:12;;;;;;;47.05;28.88;;;2.90;99.90;;;;;;5048289;28;20807;-73
2024/03/07 05:26:58;;;;;;;43.67;28.58;;;3.00;99.90;;;;;;5049412;28;20221;-73
2024/03/07 05:29:44;;;;;;;47.88;28.48;;;3.00;99.90;;;;;;5049266;28;20383;-73
2024/03/07 05:32:31;;;;;;;41.08;26.70;;;3.00;99.90;;;;;;5048279;28;20196;-72
2024/03/07 05:35:16;;;;;;;37.58;25.85;;;2.90;99.90;;;;;;5047285;28;20243;-73
2024/03/07 05:38:04;;;;;;;40.88;24.35;;;2.90;99.90;;;;;;5050903;28;20306;-73
2024/03/07 05:40:51;;;;;;;41.58;26.98;;;2.90;99.90;;;;;;5044464;28;20284;-74
2024/03/07 05:43:37;;;;;;;45.90;27.05;;;2.90;99.90;;;;;;5049477;28;20204;-73
2024/03/07 05:46:23;;;;;;;37.08;23.95;;;3.00;99.90;;;;;;5047094;28;20214;-73
2024/03/07 05:49:09;;;;;;;36.90;24.25;;;2.90;99.90;;;;;;5046697;28;20231;-73
2024/03/07 05:51:54;;;;;;;35.45;24.20;;;3.00;99.90;;;;;;5046435;28;20205;-74
2024/03/07 05:54:40;;;;;;;35.70;26.25;;;3.00;99.90;;;;;;5046837;28;20197;-72
2024/03/07 05:57:27;;;;;;;42.75;25.67;;;2.90;99.90;;;;;;5048214;28;20200;-73
2024/03/07 06:00:15;;;;;;;38.65;23.73;;;2.90;99.90;;;;;;5050332;28;20247;-74
2024/03/07 06:03:01;;;;;;;39.58;26.20;;;2.90;99.90;;;;;;5044620;28;20268;-73
2024/03/07 06:05:48;;;;;;;45.58;27.35;;;2.80;99.90;;;;;;5042305;28;20685;-74
2024/03/07 06:08:33;;;;;;;43.35;27.10;;;2.80;99.90;;;;;;5043438;28;20245;-73
2024/03/07 06:11:21;;;;;;;43.08;26.00;;;2.70;99.90;;;;;;5048818;28;20608;-73
2024/03/07 06:14:08;;;;;;;37.22;25.92;;;2.70;99.90;;;;;;5047929;28;20209;-73
2024/03/07 06:16:54;;;;;;;35.88;25.48;;;2.60;99.90;;;;;;5047678;28;20294;-73
2024/03/07 06:19:40;;;;;;;38.08;26.40;;;2.70;99.90;;;;;;5045546;28;20252;-73
2024/03/07 06:22:26;;;;;;;40.05;27.17;;;2.80;99.90;;;;;;5045205;28;20585;-73
2024/03/07 06:25:18;;;;;;;39.95;26.08;;;2.70;99.90;;;;;;5045455;28;20621;-73
2024/03/07 06:28:10;;;;;;;48.65;26.75;;;2.70;99.90;;;;;;5047482;28;20275;-72
2024/03/07 06:30:57;;;;;;;38.75;25.80;;;2.70;99.90;;;;;;5046680;28;20415;-73
2024/03/07 06:33:43;;;;;;;40.55;23.25;;;2.70;99.90;;;;;;5046858;28;20738;-73
2024/03/07 06:36:29;;;;;;;38.40;25.83;;;2.70;99.90;;;;;;5044241;28;20204;-73
2024/03/07 06:39:15;;;;;;;38.25;25.55;;;2.80;99.90;;;;;;5046288;28;20227;-73
2024/03/07 06:42:01;;;;;;;43.20;26.52;;;2.90;99.90;;;;;;5044533;28;20213;-73
2024/03/07 06:44:47;;;;;;;41.63;26.42;;;3.00;99.90;;;;;;5045259;28;20682;-73
2024/03/07 06:47:34;;;;;;;39.13;25.58;;;3.00;99.90;;;;;;5045226;28;20224;-73
2024/03/07 06:50:19;;;;;;;42.63;26.27;;;3.10;99.90;;;;;;5046974;28;20291;-73
2024/03/07 06:53:06;;;;;;;40.65;26.63;;;3.10;99.90;;;;;;5047770;28;20209;-73
2024/03/07 06:55:53;;;;;;;38.63;24.33;;;3.30;99.90;;;;;;5045289;28;20280;-72
2024/03/07 06:58:38;;;;;;;44.22;28.50;;;3.30;99.90;;;;;;5046487;28;20267;-74
2024/03/07 07:01:24;;;;;;;38.03;25.70;;;3.40;99.90;;;;;;5046496;28;20209;-72
2024/03/07 07:04:13;;;;;;;49.78;26.08;;;3.50;99.90;;;;;;5045597;28;20280;-73
2024/03/07 07:06:58;;;;;;;41.92;27.15;;;3.50;99.90;;;;;;5047158;28;20276;-73
2024/03/07 07:09:44;;;;;;;41.75;25.45;;;3.60;99.90;;;;;;5045886;28;20209;-73
2024/03/07 07:12:30;;;;;;;40.72;27.05;;;3.60;99.90;;;;;;5048325;28;20208;-73
2024/03/07 07:15:18;;;;;;;37.92;24.92;;;3.60;99.90;;;;;;5047640;28;20336;-74
2024/03/07 07:18:04;;;;;;;38.50;24.85;;;3.60;99.90;;;;;;5046905;28;20254;-73
2024/03/07 07:20:51;;;;;;;44.83;28.13;;;3.50;99.90;;;;;;5047535;28;20626;-73
2024/03/07 07:23:37;;;;;;;44.08;27.67;;;3.50;99.90;;;;;;5047159;28;20620;-74
2024/03/07 07:26:23;;;;;;;41.92;28.17;;;3.50;99.90;;;;;;5044208;28;20287;-73
2024/03/07 07:29:08;;;;;;;44.67;28.85;;;3.50;99.90;;;;;;5047861;28;20233;-73
2024/03/07 07:31:54;;;;;;;43.35;27.63;;;3.60;99.90;;;;;;5044557;28;20245;-73
2024/03/07 07:34:42;;;;;;;46.65;28.73;;;3.70;99.90;;;;;;5046423;28;20204;-73
2024/03/07 07:37:29;;;;;;;42.55;27.88;;;3.70;99.90;;;;;;5046065;28;20201;-74
2024/03/07 07:40:18;;;;;;;46.95;29.75;;;3.80;99.90;;;;;;5048123;28;20295;-73
2024/03/07 07:43:04;;;;;;;46.30;29.55;;;3.90;99.90;;;;;;5046709;28;20209;-73
2024/03/07 07:45:50;;;;;;;49.40;32.58;;;3.90;99.90;;;;;;5047012;28;20225;-73
2024/03/07 07:48:36;;;;;;;45.72;30.52;;;3.90;99.90;;;;;;5045621;28;20311;-73
2024/03/07 07:51:21;;;;;;;46.53;30.73;;;4.00;99.90;;;;;;5045559;28;20729;-73
2024/03/07 07:54:09;;;;;;;48.88;30.40;;;4.00;99.90;;;;;;5048125;28;20614;-73
2024/03/07 07:56:54;;;;;;;48.28;28.48;;;3.90;99.90;;;;;;5051966;28;20208;-73
2024/03/07 07:59:40;;;;;;;46.50;29.52;;;4.00;99.90;;;;;;5050579;28;20719;-73
2024/03/07 08:02:27;;;;;;;48.30;30.88;;;4.10;99.90;;;;;;5050703;28;20794;-73
2024/03/07 08:05:17;;;;;;;46.78;29.83;;;4.10;99.90;;;;;;5051205;28;20213;-73
2024/03/07 08:08:06;;;;;;;40.95;28.95;;;4.20;99.90;;;;;;5048382;28;20237;-74
2024/03/07 08:10:52;;;;;;;49.08;29.70;;;4.20;99.90;;;;;;5048153;28;20605;-73
2024/03/07 08:13:38;;;;;;;42.17;30.08;;;4.20;99.90;;;;;;5051307;28;20661;-76
2024/03/07 08:16:24;;;;;;;45.50;30.15;;;4.20;99.90;;;;;;5049902;28;20205;-73
2024/03/07 08:19:11;;;;;;;48.20;32.58;;;4.30;99.90;;;;;;5051194;28;20235;-73
2024/03/07 08:21:56;;;;;;;46.90;29.13;;;4.30;99.90;;;;;;5051460;28;20807;-73
2024/03/07 08:24:42;;;;;;;48.15;31.30;;;4.50;99.90;;;;;;5050486;28;20734;-72
2024/03/07 08:27:29;;;;;;;46.45;31.50;;;4.50;99.90;;;;;;5046770;28;20282;-72
2024/03/07 08:30:16;;;;;;;53.63;31.88;;;4.70;99.90;;;;;;5050691;28;20209;-73
2024/03/07 08:33:04;;;;;;;46.85;27.40;;;4.90;99.90;;;;;;5051273;28;20278;-73
2024/03/07 08:35:52;;;;;;;43.47;27.08;;;5.20;99.90;;;;;;5049174;28;20213;-73
2024/03/07 08:38:39;;;;;;;43.05;27.98;;;5.30;99.90;;;;;;5048950;28;20231;-75
2024/03/07 08:41:24;;;;;;;35.00;24.90;;;5.50;99.90;;;;;;5047378;28;20210;-73
2024/03/07 08:44:13;;;;;;;36.15;24.50;;;5.70;99.90;;;;;;5049917;28;20212;-73
2024/03/07 08:46:58;;;;;;;35.17;22.25;;;5.90;99.90;;;;;;5049014;28;20626;-73
2024/03/07 08:49:44;;;;;;;29.05;19.60;;;6.00;99.90;;;;;;5049671;28;20230;-73
2024/03/07 08:52:30;;;;;;;31.80;19.30;;;6.20;99.90;;;;;;5049144;28;20209;-74
2024/03/07 08:55:16;;;;;;;26.83;19.05;;;6.30;99.90;;;;;;5047493;28;20208;-74
2024/03/07 08:58:02;;;;;;;27.55;20.45;;;6.30;99.90;;;;;;5049738;28;20225;-74
2024/03/07 09:00:52;;;;;;;30.80;18.67;;;6.40;99.90;;;;;;5050674;28;20233;-74
2024/03/07 09:03:38;;;;;;;22.75;16.98;;;6.50;99.90;;;;;;5049380;28;20206;-73
2024/03/07 09:06:23;;;;;;;26.63;18.73;;;6.50;99.90;;;;;;5049499;28;20288;-73
2024/03/07 09:09:10;;;;;;;27.80;18.33;;;6.60;99.90;;;;;;5048561;28;20228;-73
2024/03/07 09:11:55;;;;;;;30.80;20.05;;;6.60;99.90;;;;;;5049848;28;20631;-73
2024/03/07 09:14:41;;;;;;;27.08;17.45;;;6.60;99.90;;;;;;5049156;28;20217;-76
2024/03/07 09:17:28;;;;;;;33.92;18.70;;;6.70;99.90;;;;;;5048877;28;20237;-73
2024/03/07 09:20:15;;;;;;;28.67;17.33;;;6.70;99.90;;;;;;5047875;28;20203;-73
2024/03/07 09:23:00;;;;;;;28.05;19.58;;;6.70;99.90;;;;;;5047318;28;20424;-74
2024/03/07 09:25:46;;;;;;;29.93;18.10;;;6.70;99.90;;;;;;5050021;28;20222;-74
2024/03/07 09:28:32;;;;;;;24.43;17.77;;;6.70;99.90;;;;;;5048630;28;20475;-72
2024/03/07 09:31:18;;;;;;;26.07;18.80;;;6.80;99.90;;;;;;5047194;28;20440;-73
2024/03/07 09:34:05;;;;;;;32.03;18.57;;;6.80;99.90;;;;;;5048913;28;20454;-73
2024/03/07 09:36:51;;;;;;;31.17;19.80;;;6.80;99.90;;;;;;5047436;28;20444;-73
2024/03/07 09:39:37;;;;;;;30.87;17.70;;;6.90;99.90;;;;;;5044321;28;20551;-73
2024/03/07 09:42:27;;;;;;;25.33;18.55;;;6.90;99.90;;;;;;5049816;28;20432;-73
2024/03/07 09:45:18;;;;;;;28.92;19.00;;;6.90;99.90;;;;;;5050297;28;20229;-73
2024/03/07 09:48:04;;;;;;;28.77;19.43;;;6.90;99.90;;;;;;5048995;28;20237;-73
2024/03/07 09:50:55;;;;;;;26.23;18.60;;;6.90;99.90;;;;;;5047508;28;20432;-73
2024/03/07 09:53:43;;;;;;;26.83;17.93;;;7.00;99.90;;;;;;5048678;28;20448;-73
2024/03/07 09:56:31;;;;;;;28.20;19.20;;;7.00;99.90;;;;;;5045597;28;20446;-73
2024/03/07 09:59:20;;;;;;;26.17;17.85;;;7.00;99.90;;;;;;5047699;28;20939;-73
2024/03/07 10:02:08;;;;;;;28.60;19.20;;;7.00;99.90;;;;;;5049315;28;20223;-73
2024/03/07 10:04:56;;;;;;;30.85;19.65;;;7.00;99.90;;;;;;5048402;28;20221;-73
2024/03/07 10:07:43;;;;;;;32.42;20.02;;;7.00;99.90;;;;;;5047371;28;20587;-73
2024/03/07 10:10:30;;;;;;;26.98;19.15;;;7.00;99.90;;;;;;5048918;28;20276;-74
2024/03/07 10:13:17;;;;;;;30.70;20.37;;;7.10;99.90;;;;;;5046012;28;20214;-74
2024/03/07 10:16:04;;;;;;;30.48;19.10;;;7.10;99.90;;;;;;5047748;28;20598;-74
2024/03/07 10:18:50;;;;;;;32.03;20.05;;;7.10;99.90;;;;;;5047185;28;20225;-73
2024/03/07 10:21:36;;;;;;;27.55;19.38;;;7.20;99.90;;;;;;5043566;28;20215;-74
2024/03/07 10:24:25;;;;;;;27.37;18.40;;;7.30;99.90;;;;;;5045565;28;20586;-74
2024/03/07 10:27:11;;;;;;;28.43;19.10;;;7.40;99.90;;;;;;5044823;28;20437;-73
2024/03/07 10:29:57;;;;;;;27.15;18.80;;;7.60;99.90;;;;;;5046732;28;20508;-73
2024/03/07 10:32:43;;;;;;;23.73;18.00;;;7.70;99.90;;;;;;5046668;28;20211;-74
2024/03/07 10:35:30;;;;;;;28.98;19.38;;;7.70;99.90;;;;;;5048877;28;20279;-74
2024/03/07 10:38:15;;;;;;;29.23;18.87;;;7.80;99.90;;;;;;5049199;28;20233;-74
2024/03/07 10:41:04;;;;;;;30.13;18.90;;;7.90;99.90;;;;;;5047573;28;20798;-74
2024/03/07 10:43:55;;;;;;;27.60;19.60;;;8.00;99.90;;;;;;5047649;28;20432;-74
2024/03/07 10:46:43;;;;;;;33.00;19.60;;;8.20;99.90;;;;;;5044409;28;20500;-74
2024/03/07 10:49:33;;;;;;;26.67;17.67;;;8.40;99.90;;;;;;5046246;28;20234;-74
2024/03/07 10:52:30;;;;;;;29.25;17.00;;;8.60;99.90;;;;;;5047907;28;20403;-73
2024/03/07 10:55:32;;;;;;;31.83;19.40;;;8.80;99.90;;;;;;5047919;28;20214;-74
2024/03/07 10:58:32;;;;;;;28.80;17.90;;;8.80;99.90;;;;;;5047851;28;20514;-74
2024/03/07 11:01:21;;;;;;;29.70;19.00;;;8.90;99.90;;;;;;5045279;28;20976;-73
2024/03/07 11:04:08;;;;;;;26.13;17.77;;;9.00;99.90;;;;;;5047749;28;20521;-73
2024/03/07 11:06:54;;;;;;;31.27;20.13;;;9.30;99.90;;;;;;5047224;28;20441;-73
2024/03/07 11:09:42;;;;;;;27.73;19.07;;;9.50;99.90;;;;;;5047068;28;20552;-73
2024/03/07 11:12:28;;;;;;;27.73;20.13;;;9.60;96.90;;;;;;5050824;28;20441;-73
2024/03/07 11:15:19;;;;;;;30.13;17.00;;;9.60;98.50;;;;;;5048720;28;20928;-73
2024/03/07 11:18:08;;;;;;;27.13;16.73;;;9.60;95.20;;;;;;5046553;28;20444;-74
2024/03/07 11:20:54;;;;;;;26.60;16.70;;;9.60;99.10;;;;;;5042602;28;20507;-74
2024/03/07 11:23:46;;;;;;;30.37;17.77;;;9.60;99.80;;;;;;5045614;28;21080;-73
2024/03/07 11:26:31;;;;;;;24.70;15.33;;;9.50;97.60;;;;;;5044556;28;20411;-74
2024/03/07 11:29:57;;;;;;;26.53;16.73;;;9.50;95.70;;;;;;5045329;28;20493;-73
2024/03/07 11:32:45;;;;;;;28.43;16.20;;;9.50;97.20;;;;;;5050502;28;20962;-74
2024/03/07 11:35:35;;;;;;;22.80;15.60;;;9.50;97.50;;;;;;5047225;28;20965;-73
2024/03/07 11:38:23;;;;;;;22.17;15.73;;;9.50;98.40;;;;;;5050894;28;20457;-74
2024/03/07 11:41:13;;;;;;;20.90;14.83;;;9.50;99.90;;;;;;5050466;28;20968;-74
2024/03/07 11:44:00;;;;;;;23.70;15.80;;;9.60;99.90;;;;;;5050720;28;20782;-74
2024/03/07 11:46:46;;;;;;;18.33;14.53;;;9.60;98.70;;;;;;5050149;28;20484;-73
2024/03/07 11:49:32;;;;;;;20.60;14.63;;;9.50;98.40;;;;;;5049456;28;20616;-73
2024/03/07 11:52:18;;;;;;;19.30;14.40;;;9.40;99.90;;;;;;5049128;28;20465;-74
2024/03/07 11:55:04;;;;;;;19.77;14.43;;;9.30;99.90;;;;;;5050546;28;20432;-73
2024/03/07 11:57:51;;;;;;;20.70;13.50;;;9.30;99.90;;;;;;5051693;28;21073;-73
2024/03/07 12:00:36;;;;;;;23.77;14.93;;;9.30;99.90;;;;;;5053584;28;20589;-74
2024/03/07 12:03:25;;;;;;;17.93;12.30;;;9.40;99.90;;;;;;5051328;28;20477;-73
2024/03/07 12:06:15;;;;;;;14.80;11.13;;;9.50;99.90;;;;;;5049752;28;20438;-73
2024/03/07 12:09:06;;;;;;;22.93;13.33;;;9.60;96.90;;;;;;5049727;28;20944;-74
2024/03/07 12:11:52;;;;;;;17.27;11.90;;;9.60;99.90;;;;;;5049441;28;20469;-74
2024/03/07 12:14:38;;;;;;;18.90;12.97;;;9.70;99.90;;;;;;5048813;28;20450;-73
2024/03/07 12:17:24;;;;;;;17.90;12.90;;;9.80;99.90;;;;;;5050701;28;20516;-73
2024/03/07 12:23:12;;;;;;;17.43;13.10;;;9.70;99.00;;;;;;5050672;28;20512;-74
2024/03/07 12:26:02;;;;;;;17.10;13.50;;;9.60;98.00;;;;;;5048886;28;20998;-73
2024/03/07 12:28:48;;;;;;;19.47;12.60;;;9.70;99.20;;;;;;5050292;28;20458;-74
2024/03/07 12:31:35;;;;;;;25.10;14.60;;;9.80;99.70;;;;;;5052027;28;20441;-73
2024/03/07 12:34:21;;;;;;;20.40;13.43;;;9.90;98.80;;;;;;5048707;28;20856;-74
2024/03/07 12:37:07;;;;;;;17.50;13.43;;;9.90;96.60;;;;;;5047537;28;20588;-74
2024/03/07 12:40:01;;;;;;;20.70;12.80;;;9.90;94.20;;;;;;5047558;28;20433;-74
2024/03/07 12:42:47;;;;;;;22.10;13.37;;;9.80;96.00;;;;;;5049403;28;20440;-73
2024/03/07 12:45:34;;;;;;;22.60;13.87;;;9.80;93.70;;;;;;5049728;28;20443;-74
2024/03/07 12:48:21;;;;;;;19.00;13.73;;;9.80;93.50;;;;;;5049127;28;20581;-74
2024/03/07 12:51:07;;;;;;;19.10;13.83;;;10.00;93.80;;;;;;5050664;28;20536;-74
2024/03/07 12:53:52;;;;;;;17.97;12.60;;;10.20;93.60;;;;;;5049019;28;20552;-74
2024/03/07 12:56:39;;;;;;;19.13;13.30;;;10.40;92.50;;;;;;5048639;28;20450;-74
2024/03/07 12:59:25;;;;;;;17.07;12.83;;;10.60;93.40;;;;;;5044361;28;20585;-74
2024/03/07 13:02:12;;;;;;;20.23;13.20;;;10.80;93.70;;;;;;5044825;28;20611;-73
2024/03/07 13:04:58;;;;;;;19.60;14.27;;;10.90;89.80;;;;;;5037786;28;20434;-71
2024/03/07 13:07:43;;;;;;;18.20;13.60;;;10.70;89.60;;;;;;5049821;28;20465;-73
2024/03/07 13:10:29;;;;;;;19.03;13.73;;;10.60;87.60;;;;;;5043072;28;20493;-74
2024/03/07 13:13:16;;;;;;;24.60;14.40;;;10.50;90.30;;;;;;5048242;28;20457;-74
2024/03/07 13:16:02;;;;;;;19.90;14.37;;;10.50;91.70;;;;;;5048342;28;20524;-74
2024/03/07 13:18:50;;;;;;;20.20;13.53;;;10.40;91.00;;;;;;5049794;28;20441;-73
2024/03/07 13:21:36;;;;;;;21.90;14.73;;;10.20;90.80;;;;;;5047500;28;20508;-74
2024/03/07 13:24:21;;;;;;;19.97;13.17;;;10.10;90.20;;;;;;5048569;28;20450;-74
2024/03/07 13:27:11;;;;;;;20.80;14.80;;;10.10;91.20;;;;;;5049045;28;20450;-74
2024/03/07 13:29:58;;;;;;;22.93;13.07;;;10.00;89.10;;;;;;5045157;28;20474;-74
2024/03/07 13:32:45;;;;;;;22.97;14.23;;;10.00;90.10;;;;;;5044604;28;20972;-74
2024/03/07 13:35:31;;;;;;;18.30;13.23;;;10.00;92.00;;;;;;5046165;28;20424;-74
2024/03/07 13:38:16;;;;;;;18.90;13.87;;;9.90;90.80;;;;;;5047547;28;20684;-74
2024/03/07 13:41:03;;;;;;;19.13;13.17;;;9.80;91.90;;;;;;5046099;28;20460;-74
2024/03/07 13:43:49;;;;;;;22.80;13.13;;;9.80;93.00;;;;;;5045149;28;20971;-74
2024/03/07 13:46:37;;;;;;;18.20;12.83;;;9.80;94.50;;;;;;5044654;28;20425;-74
2024/03/07 13:49:23;;;;;;;17.83;13.37;;;9.90;93.50;;;;;;5043418;28;20484;-74
2024/03/07 13:52:18;;;;;;;19.83;14.27;;;9.90;92.90;;;;;;5047408;28;20858;-74
2024/03/07 13:55:08;;;;;;;19.57;12.50;;;9.90;94.00;;;;;;5047279;28;21240;-74
2024/03/07 13:58:01;;;;;;;17.10;12.60;;;9.90;92.00;;;;;;5048390;28;20466;-74
2024/03/07 14:00:52;;;;;;;19.63;11.90;;;9.80;91.40;;;;;;5047579;28;20491;-74
2024/03/07 14:04:11;;;;;;;20.57;12.70;;;9.90;93.20;;;;;;5047292;28;20442;-74
2024/03/07 14:07:19;;;;;;;17.20;12.57;;;9.80;90.30;;;;;;5048092;28;20573;-74
2024/03/07 14:10:32;;;;;;;19.03;12.13;;;9.90;93.10;;;;;;5044302;28;20481;-74
2024/03/07 14:13:37;;;;;;;23.40;13.80;;;9.80;91.40;;;;;;5045185;28;20557;-74
2024/03/07 14:16:51;;;;;;;15.93;12.77;;;9.90;90.90;;;;;;5045259;28;20500;-74
2024/03/07 14:20:26;;;;;;;18.43;11.90;;;9.90;90.50;;;;;;5044005;28;20466;-74
2024/03/07 14:23:25;;;;;;;16.70;12.37;;;9.90;89.60;;;;;;5047830;28;21000;-74
2024/03/07 14:26:53;;;;;;;15.70;12.03;;;9.90;90.10;;;;;;5045940;28;20562;-74